Time;durP1;ratioP1;P1;durP2;ratioP2;P2;SDS_P1;SDS_P2;PMS_P1;PMS_P2;Temp;Humidity;BMP_temperature;BMP_pressure;BME280_temperature;BME280_humidity;BME280_pressure;Samples;Min_cycle;Max_cycle;Signal;HPM_P1;HPM_P2
2023/06/12 00:00:51;;;;;;;6.25;5.60;;;17.10;99.90;;;;;;5090868;28;20382;-68
2023/06/12 00:03:18;;;;;;;6.97;6.15;;;17.10;99.90;;;;;;5090602;28;20504;-68
2023/06/12 00:05:44;;;;;;;9.75;6.18;;;17.00;1.00;;;;;;5090690;28;20026;-68
2023/06/12 00:08:13;;;;;;;9.88;5.63;;;16.90;1.00;;;;;;5090642;28;20477;-68
2023/06/12 00:10:40;;;;;;;6.18;5.57;;;16.90;1.00;;;;;;5090641;28;20111;-68
2023/06/12 00:13:07;;;;;;;6.28;5.60;;;16.80;1.00;;;;;;5090642;28;20021;-68
2023/06/12 00:15:34;;;;;;;8.85;6.00;;;16.80;1.00;;;;;;5090457;28;20062;-68
2023/06/12 00:18:00;;;;;;;6.68;5.82;;;16.80;80.60;;;;;;5090516;28;20500;-68
2023/06/12 00:20:27;;;;;;;8.20;6.15;;;16.70;99.90;;;;;;5090364;28;20031;-69
2023/06/12 00:22:52;;;;;;;7.78;5.78;;;16.70;99.90;;;;;;5090343;28;20068;-68
2023/06/12 00:25:18;;;;;;;8.00;6.00;;;16.70;99.90;;;;;;5070012;28;20021;-68
2023/06/12 00:27:44;;;;;;;6.75;5.78;;;16.60;99.90;;;;;;5070040;28;20032;-68
2023/06/12 00:30:10;;;;;;;7.30;6.13;;;16.60;99.90;;;;;;5070209;28;20547;-68
2023/06/12 00:32:35;;;;;;;6.80;5.70;;;16.50;99.90;;;;;;5069932;28;20118;-68
2023/06/12 00:35:01;;;;;;;7.32;5.85;;;16.50;1.00;;;;;;5070143;28;20059;-68
2023/06/12 00:37:27;;;;;;;7.20;5.85;;;16.40;1.00;;;;;;5070115;28;20482;-68
2023/06/12 00:39:53;;;;;;;8.30;5.72;;;16.50;1.00;;;;;;5069977;28;20484;-68
2023/06/12 00:42:20;;;;;;;6.43;5.72;;;16.40;52.50;;;;;;5069678;28;20083;-68
2023/06/12 00:44:45;;;;;;;8.70;6.05;;;16.40;83.00;;;;;;5070184;28;20404;-68
2023/06/12 00:47:11;;;;;;;6.72;5.68;;;16.30;89.40;;;;;;5069558;28;20025;-68
2023/06/12 00:49:37;;;;;;;7.40;5.78;;;16.20;47.60;;;;;;5069620;28;20025;-68
2023/06/12 00:52:03;;;;;;;7.93;5.75;;;16.20;29.80;;;;;;5069682;28;20474;-68
2023/06/12 00:54:29;;;;;;;8.70;5.38;;;16.20;61.60;;;;;;5069593;28;20086;-68
2023/06/12 00:56:56;;;;;;;8.02;5.78;;;16.20;99.90;;;;;;5069670;28;20021;-68
2023/06/12 00:59:23;;;;;;;6.78;5.93;;;16.10;99.90;;;;;;5069195;28;20131;-68
2023/06/12 01:01:48;;;;;;;6.93;6.22;;;16.10;99.90;;;;;;5069489;28;20071;-68
2023/06/12 01:04:14;;;;;;;9.35;6.57;;;16.00;99.90;;;;;;5069274;28;20016;-68
2023/06/12 01:07:07;;;;;;;7.32;5.60;;;16.00;99.90;;;;;;5068082;28;20017;-68
2023/06/12 01:09:43;;;;;;;7.30;5.88;;;16.00;99.90;;;;;;5069236;28;20029;-68
2023/06/12 01:12:10;;;;;;;9.75;6.15;;;16.00;99.90;;;;;;5056218;28;20025;-68
2023/06/12 01:14:37;;;;;;;6.75;5.90;;;15.90;99.90;;;;;;5055929;28;20029;-68
2023/06/12 01:17:03;;;;;;;7.63;6.00;;;15.90;99.90;;;;;;5056052;28;20071;-68
2023/06/12 01:19:28;;;;;;;8.07;6.30;;;15.90;99.90;;;;;;5055956;28;20478;-68
2023/06/12 01:21:59;;;;;;;6.85;5.70;;;15.90;99.90;;;;;;5055992;28;20037;-68
2023/06/12 01:24:48;;;;;;;9.10;6.00;;;15.90;99.90;;;;;;5055748;28;20024;-68
2023/06/12 01:30:27;;;;;;;6.60;5.90;;;15.80;99.90;;;;;;5111189;27;20125;-68
2023/06/12 01:32:58;;;;;;;6.75;5.45;;;15.80;99.90;;;;;;5111203;27;20044;-68
2023/06/12 01:35:27;;;;;;;9.32;5.93;;;15.70;1.00;;;;;;5111071;28;20016;-68
2023/06/12 01:38:16;;;;;;;7.00;5.95;;;15.70;1.00;;;;;;5111085;28;20489;-68
2023/06/12 01:40:45;;;;;;;6.72;5.82;;;15.60;99.90;;;;;;5110980;28;20028;-68
2023/06/12 01:43:10;;;;;;;8.00;5.78;;;15.60;99.90;;;;;;5110876;28;20028;-68
2023/06/12 01:45:37;;;;;;;8.38;6.65;;;15.50;99.90;;;;;;5110999;28;20039;-68
2023/06/12 01:48:04;;;;;;;7.35;5.78;;;15.40;99.90;;;;;;5110683;28;20111;-68
2023/06/12 01:50:29;;;;;;;9.60;6.18;;;15.40;99.90;;;;;;5110759;28;20026;-68
2023/06/12 01:52:55;;;;;;;7.38;5.93;;;15.40;1.00;;;;;;5110995;28;20110;-68
2023/06/12 01:55:21;;;;;;;6.05;5.45;;;15.30;1.00;;;;;;5110556;28;20426;-68
2023/06/12 01:57:48;;;;;;;9.60;6.68;;;15.30;4.10;;;;;;5110639;28;20024;-68
2023/06/12 02:00:15;;;;;;;6.97;5.90;;;15.20;1.00;;;;;;5110582;28;20362;-68
2023/06/12 02:02:42;;;;;;;7.82;6.28;;;15.20;1.00;;;;;;5110556;28;20103;-68
2023/06/12 02:05:08;;;;;;;9.50;6.82;;;15.20;1.00;;;;;;5110659;28;20028;-68
2023/06/12 02:07:33;;;;;;;7.47;6.43;;;15.20;1.00;;;;;;5110414;28;20027;-68
2023/06/12 02:09:59;;;;;;;8.93;6.25;;;15.20;1.00;;;;;;5110444;28;20020;-68
2023/06/12 02:12:24;;;;;;;7.57;6.18;;;15.20;99.90;;;;;;5110433;28;20020;-68
2023/06/12 02:14:50;;;;;;;9.32;5.93;;;15.10;99.90;;;;;;5110541;28;20030;-68
2023/06/12 02:17:18;;;;;;;8.80;6.43;;;15.10;99.90;;;;;;5110252;28;20028;-68
2023/06/12 02:19:47;;;;;;;8.23;6.22;;;15.10;99.90;;;;;;5110391;28;20027;-68
2023/06/12 02:22:12;;;;;;;8.10;6.45;;;15.10;99.90;;;;;;5110176;28;20151;-68
2023/06/12 02:24:39;;;;;;;8.65;6.28;;;15.10;99.90;;;;;;5110146;28;20483;-68
2023/06/12 02:27:05;;;;;;;9.23;6.30;;;15.10;99.90;;;;;;5110052;28;20385;-68
2023/06/12 02:29:30;;;;;;;12.50;7.45;;;15.10;1.00;;;;;;5109828;28;20051;-68
2023/06/12 02:31:56;;;;;;;6.80;5.90;;;15.00;1.00;;;;;;5110220;28;20031;-68
2023/06/12 02:34:21;;;;;;;8.07;5.85;;;15.00;99.90;;;;;;5109793;28;20047;-68
2023/06/12 02:36:47;;;;;;;8.25;6.15;;;15.00;99.90;;;;;;5110044;28;20063;-68
2023/06/12 02:39:14;;;;;;;6.60;5.65;;;15.00;7.10;;;;;;5108419;28;20032;-68
2023/06/12 02:41:41;;;;;;;11.27;6.07;;;15.00;1.00;;;;;;5096126;28;20020;-68
2023/06/12 02:44:07;;;;;;;7.43;6.13;;;15.00;1.00;;;;;;5096195;28;20065;-68
2023/06/12 02:46:32;;;;;;;9.57;6.97;;;15.00;1.00;;;;;;5096163;28;20511;-68
2023/06/12 02:48:58;;;;;;;6.95;6.25;;;15.00;1.00;;;;;;5096098;28;20032;-68
2023/06/12 02:51:23;;;;;;;7.40;6.32;;;15.00;1.00;;;;;;5095758;28;20047;-68
2023/06/12 02:53:49;;;;;;;8.55;6.63;;;15.00;1.00;;;;;;5096085;28;20051;-68
2023/06/12 02:56:15;;;;;;;11.60;6.82;;;15.00;36.80;;;;;;5096119;28;20403;-68
2023/06/12 02:58:40;;;;;;;9.40;6.78;;;15.00;1.00;;;;;;5095900;28;20486;-68
2023/06/12 03:01:06;;;;;;;10.25;6.78;;;15.00;1.00;;;;;;5095821;28;20058;-68
2023/06/12 03:03:32;;;;;;;8.05;6.53;;;15.10;1.00;;;;;;5095824;28;20050;-68
2023/06/12 03:05:58;;;;;;;10.27;6.80;;;15.00;25.50;;;;;;5095973;28;20032;-68
2023/06/12 03:08:23;;;;;;;10.80;6.30;;;15.00;99.90;;;;;;5095727;28;20052;-67
2023/06/12 03:10:49;;;;;;;9.13;5.85;;;15.00;1.00;;;;;;5095698;28;20024;-68
2023/06/12 03:13:14;;;;;;;7.65;6.45;;;15.10;1.00;;;;;;5095842;28;20040;-68
2023/06/12 03:15:40;;;;;;;7.70;6.57;;;15.10;99.90;;;;;;5095585;28;20035;-68
2023/06/12 03:18:06;;;;;;;8.43;6.50;;;15.20;99.90;;;;;;5095733;28;20024;-68
2023/06/12 03:20:33;;;;;;;8.65;6.00;;;15.30;99.90;;;;;;5095645;28;20032;-68
2023/06/12 03:22:59;;;;;;;8.55;6.45;;;15.30;99.90;;;;;;5095284;28;20020;-68
2023/06/12 03:25:25;;;;;;;8.45;6.22;;;15.30;99.90;;;;;;5095572;28;20390;-68
2023/06/12 03:27:50;;;;;;;7.72;6.43;;;15.30;99.90;;;;;;5095249;28;20032;-68
2023/06/12 03:30:16;;;;;;;7.45;6.10;;;15.30;99.90;;;;;;5095239;28;20035;-68
2023/06/12 03:32:42;;;;;;;8.32;6.38;;;15.30;99.90;;;;;;5095114;28;20024;-66
2023/06/12 03:35:07;;;;;;;12.63;6.90;;;15.30;99.90;;;;;;5095323;28;20032;-66
2023/06/12 03:37:33;;;;;;;10.13;6.53;;;15.30;99.90;;;;;;5095088;28;20047;-66
2023/06/12 03:39:59;;;;;;;11.80;6.82;;;15.30;99.90;;;;;;5095086;28;20440;-66
2023/06/12 03:42:25;;;;;;;9.05;6.35;;;15.30;99.90;;;;;;5095250;28;20363;-66
2023/06/12 03:44:50;;;;;;;10.75;6.93;;;15.30;99.90;;;;;;5095079;28;20059;-66
2023/06/12 03:47:16;;;;;;;9.05;6.57;;;15.30;99.90;;;;;;5094803;28;20032;-66
2023/06/12 03:49:42;;;;;;;9.90;6.60;;;15.30;99.90;;;;;;5095134;28;20020;-66
2023/06/12 03:52:08;;;;;;;8.88;6.57;;;15.30;1.00;;;;;;5093886;28;20020;-66
2023/06/12 03:54:33;;;;;;;8.15;6.60;;;15.30;1.00;;;;;;5095048;28;20415;-66
2023/06/12 03:56:59;;;;;;;9.07;7.22;;;15.30;1.00;;;;;;5094829;28;20116;-66
2023/06/12 03:59:25;;;;;;;7.85;6.35;;;15.30;1.00;;;;;;5094753;28;20024;-66
2023/06/12 04:01:52;;;;;;;8.52;7.05;;;15.40;1.00;;;;;;5094704;28;20078;-66
2023/06/12 04:04:18;;;;;;;9.43;6.63;;;15.40;1.00;;;;;;5094632;28;20052;-66
2023/06/12 04:06:45;;;;;;;8.65;7.05;;;15.50;1.00;;;;;;5093398;28;20552;-66
2023/06/12 04:09:14;;;;;;;9.85;6.78;;;15.60;99.90;;;;;;5094504;28;20028;-66
2023/06/12 04:11:40;;;;;;;9.32;6.32;;;15.80;99.90;;;;;;5094489;28;20103;-66
2023/06/12 04:14:06;;;;;;;9.18;7.20;;;16.00;99.90;;;;;;5094494;28;20418;-66
2023/06/12 04:16:32;;;;;;;9.02;7.40;;;16.20;58.70;;;;;;5094483;28;20020;-66
2023/06/12 04:19:03;;;;;;;8.85;6.35;;;16.30;69.80;;;;;;5094402;28;20504;-66
2023/06/12 04:21:30;;;;;;;8.95;6.90;;;16.40;64.60;;;;;;5094371;28;20094;-66
2023/06/12 04:23:56;;;;;;;8.07;6.72;;;16.60;1.00;;;;;;5094345;28;20103;-66
2023/06/12 04:26:24;;;;;;;9.90;6.82;;;16.80;1.00;;;;;;5094302;28;20434;-66
2023/06/12 04:28:49;;;;;;;10.60;6.85;;;17.00;1.00;;;;;;5094102;28;20051;-66
2023/06/12 04:31:16;;;;;;;8.93;6.25;;;17.10;1.00;;;;;;5094106;28;20024;-66
2023/06/12 04:33:41;;;;;;;10.90;7.05;;;17.60;99.90;;;;;;5094074;28;20020;-67
2023/06/12 04:36:07;;;;;;;7.68;5.75;;;18.10;99.90;;;;;;5094248;28;20023;-66
2023/06/12 04:38:36;;;;;;;13.13;6.93;;;18.90;99.90;;;;;;5094039;28;20123;-67
2023/06/12 04:41:02;;;;;;;8.35;6.32;;;20.30;73.20;;;;;;5094253;28;20420;-67
2023/06/12 04:43:29;;;;;;;7.68;6.18;;;22.00;1.00;;;;;;5093916;28;20077;-67
2023/06/12 04:45:55;;;;;;;7.13;6.10;;;23.40;99.90;;;;;;5092758;28;20051;-68
2023/06/12 04:48:20;;;;;;;11.90;6.50;;;24.10;99.90;;;;;;5093998;28;20064;-66
2023/06/12 04:50:47;;;;;;;8.00;5.93;;;25.00;99.90;;;;;;5094011;28;20382;-66
2023/06/12 04:53:17;;;;;;;8.32;5.75;;;25.20;99.90;;;;;;5093746;28;20020;-66
2023/06/12 04:55:44;;;;;;;8.50;5.80;;;25.70;99.90;;;;;;5093718;28;20507;-66
2023/06/12 04:58:10;;;;;;;6.65;6.07;;;26.40;99.90;;;;;;5093838;28;20020;-66
2023/06/12 05:00:35;;;;;;;6.35;5.75;;;26.70;99.90;;;;;;5093649;28;20371;-67
2023/06/12 05:03:02;;;;;;;10.60;5.47;;;26.50;99.90;;;;;;5093352;28;20057;-66
2023/06/12 05:05:27;;;;;;;6.82;5.90;;;27.00;99.90;;;;;;5093830;28;20012;-66
2023/06/12 05:07:53;;;;;;;7.20;6.18;;;27.00;99.90;;;;;;5093571;28;20524;-66
2023/06/12 05:10:19;;;;;;;7.43;5.93;;;27.20;99.90;;;;;;5093468;28;20073;-66
2023/06/12 05:12:45;;;;;;;6.38;5.65;;;26.90;99.90;;;;;;5093434;28;20444;-66
2023/06/12 05:15:10;;;;;;;6.70;6.07;;;27.20;99.90;;;;;;5093559;28;20056;-66
2023/06/12 05:17:37;;;;;;;6.25;5.65;;;27.50;99.90;;;;;;5093695;28;20028;-66
2023/06/12 05:20:08;;;;;;;7.97;5.93;;;27.60;99.90;;;;;;5093364;28;20031;-66
2023/06/12 05:22:33;;;;;;;7.28;5.63;;;27.40;99.90;;;;;;5093362;28;20053;-66
2023/06/12 05:24:59;;;;;;;7.32;6.13;;;27.80;99.90;;;;;;5093413;28;20036;-66
2023/06/12 05:27:24;;;;;;;7.07;6.32;;;28.30;99.70;;;;;;5093370;28;20070;-66
2023/06/12 05:29:50;;;;;;;12.73;6.20;;;28.00;99.30;;;;;;5093089;28;20544;-65
2023/06/12 05:32:16;;;;;;;8.98;6.35;;;28.20;98.70;;;;;;5093155;28;20028;-66
2023/06/12 05:34:42;;;;;;;9.48;6.15;;;28.30;95.60;;;;;;5093127;28;20470;-66
2023/06/12 05:37:07;;;;;;;8.65;5.80;;;28.00;95.90;;;;;;5093182;28;20146;-66
2023/06/12 05:39:33;;;;;;;7.47;6.05;;;28.60;90.60;;;;;;5093379;28;20028;-67
2023/06/12 05:41:58;;;;;;;9.20;5.95;;;28.70;89.50;;;;;;5092960;28;20039;-66
2023/06/12 05:44:24;;;;;;;6.75;6.05;;;29.00;85.80;;;;;;5093287;28;20032;-66
2023/06/12 05:46:52;;;;;;;7.22;6.40;;;28.90;80.00;;;;;;5093119;28;20024;-66
2023/06/12 05:49:18;;;;;;;6.70;5.95;;;28.90;75.70;;;;;;5093011;28;20028;-66
2023/06/12 05:51:43;;;;;;;11.07;6.38;;;29.00;68.50;;;;;;5093250;28;20031;-66
2023/06/12 05:54:09;;;;;;;9.43;6.68;;;28.90;69.90;;;;;;5092825;28;20394;-66
2023/06/12 05:56:34;;;;;;;7.65;6.40;;;29.80;60.20;;;;;;5092507;28;20420;-66
2023/06/12 05:59:00;;;;;;;10.57;6.30;;;29.80;58.60;;;;;;5084304;28;20036;-66
2023/06/12 06:01:26;;;;;;;7.85;6.30;;;29.00;53.40;;;;;;5074664;28;20026;-66
2023/06/12 06:03:52;;;;;;;8.75;6.80;;;29.10;54.00;;;;;;5086703;28;20035;-66
2023/06/12 06:06:18;;;;;;;7.65;5.95;;;29.30;48.50;;;;;;5090041;28;20389;-66
2023/06/12 06:08:44;;;;;;;10.40;6.65;;;28.40;46.70;;;;;;5089811;28;20047;-65
2023/06/12 06:11:10;;;;;;;10.13;6.55;;;29.10;46.20;;;;;;5076746;28;20021;-66
2023/06/12 06:13:36;;;;;;;9.82;6.35;;;29.10;41.20;;;;;;5079725;28;20022;-65
2023/06/12 06:16:02;;;;;;;9.55;6.80;;;29.30;46.50;;;;;;5082048;28;20532;-65
2023/06/12 06:18:28;;;;;;;10.20;6.75;;;28.10;50.50;;;;;;5098128;28;20083;-65
2023/06/12 06:20:54;;;;;;;6.85;6.25;;;29.20;55.40;;;;;;5078114;28;20024;-66
2023/06/12 06:23:22;;;;;;;8.25;6.45;;;29.50;56.40;;;;;;5081227;28;20033;-65
2023/06/12 06:25:48;;;;;;;8.05;6.32;;;29.80;54.80;;;;;;5094867;28;20035;-66
2023/06/12 06:28:14;;;;;;;13.57;6.85;;;30.40;57.60;;;;;;5093198;28;20537;-65
2023/06/12 06:30:40;;;;;;;10.15;7.13;;;30.30;49.30;;;;;;5092272;28;20054;-65
2023/06/12 06:33:06;;;;;;;11.65;6.65;;;29.70;40.50;;;;;;5091633;28;20024;-65
2023/06/12 06:35:31;;;;;;;11.23;6.72;;;29.70;42.10;;;;;;5085176;28;20450;-66
2023/06/12 06:37:57;;;;;;;8.18;6.32;;;29.00;36.40;;;;;;5089349;28;20035;-67
2023/06/12 06:40:24;;;;;;;10.60;6.57;;;29.40;36.60;;;;;;5085155;28;20042;-67
2023/06/12 06:42:50;;;;;;;9.27;7.13;;;29.50;35.90;;;;;;5080765;28;20077;-67
2023/06/12 06:45:15;;;;;;;7.82;7.00;;;29.50;36.70;;;;;;5080631;28;20020;-67
2023/06/12 06:47:41;;;;;;;8.63;6.88;;;30.00;39.60;;;;;;5080407;28;20049;-67
2023/06/12 06:50:07;;;;;;;8.43;7.18;;;29.70;37.60;;;;;;5076931;28;20389;-67
2023/06/12 06:52:32;;;;;;;9.18;6.60;;;30.60;38.40;;;;;;5084792;28;20028;-68
2023/06/12 06:54:58;;;;;;;7.97;6.80;;;31.10;37.70;;;;;;5086122;28;20492;-67
2023/06/12 06:57:23;;;;;;;8.48;6.47;;;30.70;32.00;;;;;;5086838;28;20028;-68
2023/06/12 06:59:50;;;;;;;7.18;6.47;;;30.00;29.50;;;;;;5086889;28;20047;-68
2023/06/12 07:02:16;;;;;;;9.63;6.88;;;30.00;28.30;;;;;;5091926;28;20085;-68
2023/06/12 07:04:42;;;;;;;11.35;7.00;;;29.80;28.20;;;;;;5094049;28;20028;-68
2023/06/12 07:07:08;;;;;;;9.02;6.88;;;30.00;30.00;;;;;;5090484;28;20543;-68
2023/06/12 07:09:34;;;;;;;7.25;6.53;;;30.90;38.30;;;;;;5086466;28;20032;-67
2023/06/12 07:11:59;;;;;;;7.03;6.35;;;30.90;36.00;;;;;;5091271;28;20024;-68
2023/06/12 07:14:25;;;;;;;8.27;6.65;;;31.70;36.50;;;;;;5091252;28;20027;-68
2023/06/12 07:16:50;;;;;;;11.35;6.55;;;32.00;32.60;;;;;;5086289;28;20038;-68
2023/06/12 07:19:16;;;;;;;10.02;7.18;;;32.10;31.90;;;;;;5084552;28;20020;-68
2023/06/12 07:21:41;;;;;;;7.75;6.93;;;31.30;31.10;;;;;;5089994;28;20039;-69
2023/06/12 07:24:07;;;;;;;7.80;6.70;;;31.20;25.20;;;;;;5089710;28;20028;-69
2023/06/12 07:26:33;;;;;;;9.10;6.90;;;31.00;23.30;;;;;;5088634;28;20030;-69
2023/06/12 07:28:58;;;;;;;8.02;7.20;;;30.40;17.80;;;;;;5092390;28;20052;-70
2023/06/12 07:31:24;;;;;;;8.25;6.78;;;30.00;19.40;;;;;;5088039;28;20385;-70
2023/06/12 07:33:49;;;;;;;8.70;6.80;;;30.00;19.10;;;;;;5088673;28;20538;-71
2023/06/12 07:36:15;;;;;;;6.95;6.25;;;29.60;19.80;;;;;;5090225;28;20031;-70
2023/06/12 07:38:41;;;;;;;9.15;7.10;;;30.10;19.30;;;;;;5085699;28;20023;-70
2023/06/12 07:41:07;;;;;;;7.15;6.28;;;30.70;20.70;;;;;;5079636;28;20371;-70
2023/06/12 07:43:34;;;;;;;9.57;7.30;;;31.00;22.50;;;;;;5089892;28;20046;-70
2023/06/12 07:46:00;;;;;;;10.65;7.00;;;31.20;22.40;;;;;;5093320;28;20054;-71
2023/06/12 07:48:26;;;;;;;9.02;7.35;;;31.00;22.40;;;;;;5077601;28;20119;-72
2023/06/12 07:50:52;;;;;;;11.48;6.88;;;31.90;25.30;;;;;;5097999;28;20491;-71
2023/06/12 07:53:17;;;;;;;8.90;6.82;;;32.50;29.10;;;;;;5101854;28;20031;-72
2023/06/12 07:55:43;;;;;;;8.50;6.43;;;33.20;27.30;;;;;;5092784;28;20023;-71
2023/06/12 07:58:09;;;;;;;9.13;6.50;;;32.90;24.10;;;;;;5087350;28;20480;-70
2023/06/12 08:00:35;;;;;;;10.95;7.13;;;32.90;23.10;;;;;;5088551;28;20495;-70
2023/06/12 08:03:02;;;;;;;10.40;6.85;;;32.30;20.70;;;;;;5086361;28;20058;-70
2023/06/12 08:05:28;;;;;;;8.27;6.32;;;33.10;25.70;;;;;;5092692;28;20024;-70
2023/06/12 08:07:54;;;;;;;7.28;6.30;;;33.00;22.80;;;;;;5089531;28;20081;-71
2023/06/12 08:10:20;;;;;;;10.98;6.60;;;33.00;24.60;;;;;;5090303;28;20023;-71
2023/06/12 08:12:45;;;;;;;10.32;7.43;;;32.60;21.60;;;;;;5087865;28;20055;-70
2023/06/12 08:15:13;;;;;;;15.10;7.05;;;32.80;19.70;;;;;;5084422;28;20077;-70
2023/06/12 08:17:41;;;;;;;8.30;7.05;;;33.30;23.80;;;;;;5097708;28;20428;-70
2023/06/12 08:20:09;;;;;;;8.18;6.65;;;33.60;33.20;;;;;;5093217;28;20024;-70
2023/06/12 08:22:35;;;;;;;7.68;6.65;;;33.20;18.10;;;;;;5093323;28;20488;-70
2023/06/12 08:25:02;;;;;;;9.05;6.72;;;33.40;17.50;;;;;;5092299;28;20030;-70
2023/06/12 08:27:28;;;;;;;8.20;6.30;;;34.10;12.10;;;;;;5088125;28;20063;-71
2023/06/12 08:29:53;;;;;;;10.77;6.72;;;33.90;20.40;;;;;;5093914;28;20478;-70
2023/06/12 08:32:19;;;;;;;9.88;6.95;;;33.80;13.90;;;;;;5093544;28;20115;-71
2023/06/12 08:34:45;;;;;;;9.93;6.43;;;34.00;9.80;;;;;;5082071;28;20020;-69
2023/06/12 08:37:10;;;;;;;9.40;6.55;;;34.10;11.00;;;;;;5091221;28;20024;-70
2023/06/12 08:39:36;;;;;;;8.10;6.93;;;33.70;7.50;;;;;;5091801;28;20039;-72
2023/06/12 08:42:08;;;;;;;10.05;6.50;;;33.50;2.80;;;;;;5080523;28;20099;-71
2023/06/12 08:44:34;;;;;;;9.13;6.60;;;34.00;3.50;;;;;;5089395;28;20075;-71
2023/06/12 08:47:02;;;;;;;7.68;6.50;;;34.20;10.40;;;;;;5089586;28;20286;-70
2023/06/12 08:49:29;;;;;;;9.57;6.82;;;34.40;7.40;;;;;;5090466;28;20376;-71
2023/06/12 08:51:55;;;;;;;8.27;6.43;;;34.20;7.70;;;;;;5087817;28;20397;-70
2023/06/12 08:54:22;;;;;;;10.02;6.53;;;34.80;13.10;;;;;;5079865;28;20020;-69
2023/06/12 08:56:48;;;;;;;8.88;6.85;;;35.20;10.60;;;;;;5085601;28;20028;-69
2023/06/12 08:59:15;;;;;;;9.68;6.15;;;34.50;5.80;;;;;;5085668;28;20382;-68
2023/06/12 09:01:41;;;;;;;7.93;6.05;;;34.80;8.60;;;;;;5090588;28;20062;-68
2023/06/12 09:04:16;;;;;;;10.70;7.00;;;35.20;1.00;;;;;;5092372;28;20389;-69
2023/06/12 09:06:42;;;;;;;9.10;6.78;;;34.20;1.00;;;;;;5087827;28;20587;-69
2023/06/12 09:09:08;;;;;;;10.10;6.40;;;34.10;1.00;;;;;;5082238;28;20032;-69
2023/06/12 09:11:36;;;;;;;6.85;6.13;;;34.50;1.00;;;;;;5085405;28;20028;-70
2023/06/12 09:14:02;;;;;;;8.55;6.55;;;34.00;1.00;;;;;;5080680;28;20123;-70
2023/06/12 09:16:27;;;;;;;7.80;6.70;;;34.20;1.60;;;;;;5081689;28;20036;-69
2023/06/12 09:18:54;;;;;;;10.07;7.15;;;33.40;1.00;;;;;;5080446;28;20060;-70
2023/06/12 09:21:22;;;;;;;13.40;6.63;;;33.40;1.00;;;;;;5078301;28;20033;-70
2023/06/12 09:23:53;;;;;;;7.75;6.75;;;34.10;1.00;;;;;;5090999;28;20040;-70
2023/06/12 09:26:21;;;;;;;10.85;7.40;;;33.60;1.00;;;;;;5092747;28;20493;-69
2023/06/12 09:28:50;;;;;;;11.27;7.30;;;34.10;1.00;;;;;;5076778;28;20052;-70
2023/06/12 09:31:15;;;;;;;8.80;7.15;;;33.60;1.00;;;;;;5085441;28;20103;-69
2023/06/12 09:33:41;;;;;;;9.20;7.15;;;33.80;1.00;;;;;;5089877;28;20462;-69
2023/06/12 09:36:10;;;;;;;9.02;7.45;;;33.00;1.00;;;;;;5092541;28;20028;-70
2023/06/12 09:38:36;;;;;;;8.57;7.53;;;33.10;1.00;;;;;;5083489;28;20039;-69
2023/06/12 09:41:03;;;;;;;8.63;7.82;;;33.20;1.00;;;;;;5093413;28;20032;-69
2023/06/12 09:43:31;;;;;;;10.13;8.20;;;32.90;1.00;;;;;;5087278;28;20117;-70
2023/06/12 09:45:57;;;;;;;9.95;8.60;;;33.10;1.00;;;;;;5084633;28;20036;-69
2023/06/12 09:48:24;;;;;;;7.85;7.15;;;32.10;1.00;;;;;;5091072;28;20046;-70
2023/06/12 09:50:50;;;;;;;8.65;7.78;;;32.10;1.00;;;;;;5091909;28;20077;-71
2023/06/12 09:53:17;;;;;;;8.85;8.00;;;32.10;1.00;;;;;;5094344;28;20020;-68
2023/06/12 09:55:45;;;;;;;8.38;7.43;;;31.60;1.00;;;;;;5090724;28;20020;-70
2023/06/12 09:58:13;;;;;;;8.25;7.05;;;30.80;1.00;;;;;;5092977;28;20028;-72
2023/06/12 10:00:39;;;;;;;9.55;7.78;;;31.30;1.00;;;;;;5095724;28;20027;-70
2023/06/12 10:03:09;;;;;;;10.57;7.50;;;31.30;1.00;;;;;;5089194;28;20058;-70
2023/06/12 10:05:38;;;;;;;10.80;7.80;;;31.90;1.00;;;;;;5097243;28;20062;-69
2023/06/12 10:08:05;;;;;;;10.98;7.40;;;32.50;1.00;;;;;;5084426;28;20417;-71
2023/06/12 10:10:33;;;;;;;9.10;8.10;;;32.10;1.00;;;;;;5085304;28;20496;-69
2023/06/12 10:13:01;;;;;;;11.85;8.30;;;32.00;1.00;;;;;;5091679;28;20031;-70
2023/06/12 10:15:27;;;;;;;8.93;7.72;;;32.90;1.00;;;;;;5097125;28;20051;-71
2023/06/12 10:17:53;;;;;;;11.82;7.75;;;32.00;1.00;;;;;;5089901;28;20032;-71
2023/06/12 10:20:20;;;;;;;10.75;8.27;;;32.30;1.00;;;;;;5088528;28;20035;-70
2023/06/12 10:22:47;;;;;;;9.07;8.23;;;32.20;1.00;;;;;;5089068;28;20113;-68
2023/06/12 10:25:14;;;;;;;12.13;8.00;;;32.50;1.00;;;;;;5083453;28;20024;-67
2023/06/12 10:27:41;;;;;;;9.82;8.60;;;32.90;1.00;;;;;;5087089;28;20020;-68
2023/06/12 10:30:11;;;;;;;10.10;8.43;;;32.90;1.00;;;;;;5101833;28;20060;-68
2023/06/12 10:32:38;;;;;;;10.30;8.25;;;32.90;1.00;;;;;;5090134;28;20123;-68
2023/06/12 10:35:04;;;;;;;10.38;8.77;;;32.70;1.00;;;;;;5090211;28;20024;-69
2023/06/12 10:37:37;;;;;;;9.68;8.60;;;32.90;1.00;;;;;;5094701;28;20020;-68
2023/06/12 10:40:06;;;;;;;;;;;32.20;1.00;;;;;;5089605;28;20024;-68
2023/06/12 10:45:28;;;;;;;12.65;8.60;;;32.10;1.00;;;;;;5064197;28;20415;-68
2023/06/12 10:48:05;;;;;;;13.75;8.10;;;30.80;1.00;;;;;;5062001;28;20020;-69
2023/06/12 10:50:34;;;;;;;11.68;8.38;;;30.90;1.00;;;;;;5070878;28;20027;-70
2023/06/12 10:53:05;;;;;;;12.50;8.57;;;29.90;1.00;;;;;;5077145;28;20028;-72
2023/06/12 10:55:32;;;;;;;10.57;9.13;;;29.80;1.00;;;;;;5078697;28;20390;-70
2023/06/12 10:58:00;;;;;;;9.07;8.18;;;29.50;1.00;;;;;;5064679;28;20445;-71
2023/06/12 11:00:47;;;;;;;9.75;8.10;;;29.90;1.00;;;;;;5066909;28;20471;-71
2023/06/12 11:03:21;;;;;;;10.18;8.55;;;30.20;1.00;;;;;;5062488;28;20029;-71
2023/06/12 11:05:51;;;;;;;10.50;9.02;;;30.30;1.00;;;;;;5065581;28;20024;-70
2023/06/12 11:08:17;;;;;;;9.85;8.82;;;30.10;1.00;;;;;;5071045;28;20419;-70
2023/06/12 11:10:43;;;;;;;10.30;7.85;;;29.90;1.00;;;;;;5057630;28;20033;-70
2023/06/12 11:13:09;;;;;;;10.82;8.55;;;29.80;1.00;;;;;;5067218;28;20430;-70
2023/06/12 11:15:44;;;;;;;9.23;8.15;;;30.10;1.00;;;;;;5066780;28;20051;-71
2023/06/12 11:18:11;;;;;;;9.57;8.57;;;29.90;1.00;;;;;;5062685;28;20074;-70
2023/06/12 11:20:37;;;;;;;9.55;7.82;;;30.20;1.00;;;;;;5066285;28;20021;-70
2023/06/12 11:23:02;;;;;;;12.32;8.30;;;29.90;1.00;;;;;;5067422;28;20079;-69
2023/06/12 11:25:33;;;;;;;12.02;8.65;;;29.70;1.00;;;;;;5058263;28;20394;-68
2023/06/12 11:27:59;;;;;;;9.15;7.88;;;29.80;1.00;;;;;;5061259;28;20021;-68
2023/06/12 11:30:25;;;;;;;9.55;8.60;;;29.20;1.00;;;;;;5054939;28;20340;-69
2023/06/12 11:32:50;;;;;;;9.75;8.02;;;29.50;1.00;;;;;;5056632;28;20024;-70
2023/06/12 11:35:16;;;;;;;9.63;8.32;;;29.80;1.00;;;;;;5061205;28;20447;-71
2023/06/12 11:37:42;;;;;;;8.93;8.02;;;30.10;1.00;;;;;;5060294;28;20131;-70
2023/06/12 11:40:11;;;;;;;9.93;7.80;;;30.50;1.00;;;;;;5057140;28;20025;-71
2023/06/12 11:42:39;;;;;;;8.93;8.02;;;30.20;1.00;;;;;;5051523;28;20042;-71
2023/06/12 11:45:11;;;;;;;9.70;7.97;;;29.70;1.00;;;;;;5062829;28;20051;-70
2023/06/12 11:47:38;;;;;;;9.57;8.60;;;29.30;1.00;;;;;;5071440;28;20020;-70
2023/06/12 11:50:07;;;;;;;8.88;7.97;;;29.80;1.00;;;;;;5071609;28;20438;-70
2023/06/12 11:52:35;;;;;;;13.20;8.40;;;30.10;1.00;;;;;;5070118;28;20367;-70
2023/06/12 11:55:04;;;;;;;11.93;8.05;;;29.40;1.00;;;;;;5064738;28;20025;-71
2023/06/12 11:57:30;;;;;;;9.57;8.55;;;29.20;1.00;;;;;;5050782;28;20059;-72
2023/06/12 11:59:57;;;;;;;9.25;8.20;;;29.40;1.00;;;;;;5046671;28;20056;-71
2023/06/12 12:02:41;;;;;;;11.40;8.40;;;29.60;1.00;;;;;;5051826;28;20029;-70
2023/06/12 12:05:11;;;;;;;11.95;9.00;;;29.30;1.00;;;;;;5053895;28;20036;-71
2023/06/12 12:07:39;;;;;;;11.13;8.23;;;29.00;1.00;;;;;;5047930;28;20471;-70
2023/06/12 12:10:09;;;;;;;9.00;8.10;;;29.40;1.00;;;;;;5049841;28;20033;-70
2023/06/12 12:12:42;;;;;;;9.23;8.32;;;29.50;1.00;;;;;;5044373;28;20021;-70
2023/06/12 12:15:10;;;;;;;9.23;8.32;;;29.60;1.00;;;;;;5058915;28;20124;-71
2023/06/12 12:17:37;;;;;;;9.80;8.05;;;29.50;1.00;;;;;;5051349;28;20040;-71
2023/06/12 12:20:06;;;;;;;9.88;8.73;;;29.90;1.00;;;;;;5041821;28;20179;-70
2023/06/12 12:22:31;;;;;;;13.95;8.93;;;29.40;1.00;;;;;;5047091;28;20033;-71
2023/06/12 12:24:58;;;;;;;8.52;7.63;;;29.20;1.00;;;;;;5061868;28;20033;-70
2023/06/12 12:27:23;;;;;;;10.73;8.15;;;29.20;1.00;;;;;;5055753;28;20107;-70
2023/06/12 12:29:49;;;;;;;10.70;8.07;;;28.90;1.00;;;;;;5070217;28;20143;-70
2023/06/12 12:32:15;;;;;;;10.35;7.78;;;28.90;1.00;;;;;;5047465;28;20025;-70
2023/06/12 12:34:40;;;;;;;8.40;7.28;;;29.20;1.00;;;;;;5042336;28;20029;-70
2023/06/12 12:37:06;;;;;;;9.93;7.80;;;29.50;1.00;;;;;;5056643;28;20029;-69
2023/06/12 12:39:31;;;;;;;8.23;7.43;;;29.60;1.00;;;;;;5052564;28;20116;-70
2023/06/12 12:41:57;;;;;;;8.40;7.50;;;29.90;1.00;;;;;;5051700;28;20414;-70
2023/06/12 12:44:22;;;;;;;9.13;7.90;;;29.90;1.00;;;;;;5045696;28;20517;-70
2023/06/12 12:46:48;;;;;;;8.60;7.80;;;30.00;1.00;;;;;;5053589;28;20085;-70
2023/06/12 12:49:13;;;;;;;8.40;7.30;;;29.80;1.00;;;;;;5048466;28;20032;-70
2023/06/12 12:51:39;;;;;;;11.18;7.40;;;29.30;1.00;;;;;;5043849;28;20541;-70
2023/06/12 12:54:05;;;;;;;10.50;7.20;;;29.80;1.00;;;;;;5039667;28;20033;-69